sensor_id;sensor_type;location;lat;lon;timestamp;P1;durP1;ratioP1;P2;durP2;ratioP2
1370;SDS011;14306;49.942;11.570;2022-11-20T00:01:11;24.80;;;12.90;;
1370;SDS011;14306;49.942;11.570;2022-11-20T00:03:41;25.40;;;13.80;;
1370;SDS011;14306;49.942;11.570;2022-11-20T00:06:08;28.47;;;13.53;;
1370;SDS011;14306;49.942;11.570;2022-11-20T00:08:36;30.10;;;14.00;;
1370;SDS011;14306;49.942;11.570;2022-11-20T00:11:10;34.97;;;14.32;;
1370;SDS011;14306;49.942;11.570;2022-11-20T00:13:44;32.58;;;15.85;;
1370;SDS011;14306;49.942;11.570;2022-11-20T00:16:11;29.88;;;13.68;;
1370;SDS011;14306;49.942;11.570;2022-11-20T00:18:40;28.83;;;13.68;;
1370;SDS011;14306;49.942;11.570;2022-11-20T00:21:09;25.92;;;13.00;;
1370;SDS011;14306;49.942;11.570;2022-11-20T00:23:36;27.55;;;13.85;;
1370;SDS011;14306;49.942;11.570;2022-11-20T00:26:06;28.63;;;14.00;;
1370;SDS011;14306;49.942;11.570;2022-11-20T00:28:32;32.75;;;15.60;;
1370;SDS011;14306;49.942;11.570;2022-11-20T00:31:11;28.10;;;15.13;;
1370;SDS011;14306;49.942;11.570;2022-11-20T00:33:38;35.63;;;16.75;;
1370;SDS011;14306;49.942;11.570;2022-11-20T00:36:05;29.57;;;14.80;;
1370;SDS011;14306;49.942;11.570;2022-11-20T00:38:32;29.60;;;15.38;;
1370;SDS011;14306;49.942;11.570;2022-11-20T00:40:59;32.47;;;16.00;;
1370;SDS011;14306;49.942;11.570;2022-11-20T00:43:25;37.03;;;16.02;;
1370;SDS011;14306;49.942;11.570;2022-11-20T00:45:55;25.93;;;13.60;;
1370;SDS011;14306;49.942;11.570;2022-11-20T00:48:24;28.73;;;14.88;;
1370;SDS011;14306;49.942;11.570;2022-11-20T00:50:50;31.00;;;14.57;;
1370;SDS011;14306;49.942;11.570;2022-11-20T00:53:15;31.17;;;15.07;;
1370;SDS011;14306;49.942;11.570;2022-11-20T00:55:41;31.73;;;14.50;;
1370;SDS011;14306;49.942;11.570;2022-11-20T00:58:06;32.47;;;15.33;;
1370;SDS011;14306;49.942;11.570;2022-11-20T01:00:32;33.13;;;16.00;;
1370;SDS011;14306;49.942;11.570;2022-11-20T01:02:57;35.27;;;15.00;;
1370;SDS011;14306;49.942;11.570;2022-11-20T01:05:22;33.23;;;14.40;;
1370;SDS011;14306;49.942;11.570;2022-11-20T01:07:48;47.03;;;17.30;;
1370;SDS011;14306;49.942;11.570;2022-11-20T01:10:13;41.77;;;17.13;;
1370;SDS011;14306;49.942;11.570;2022-11-20T01:12:39;34.50;;;15.37;;
1370;SDS011;14306;49.942;11.570;2022-11-20T01:15:04;40.57;;;16.40;;
1370;SDS011;14306;49.942;11.570;2022-11-20T01:17:30;28.53;;;14.10;;
1370;SDS011;14306;49.942;11.570;2022-11-20T01:19:56;38.95;;;16.23;;
1370;SDS011;14306;49.942;11.570;2022-11-20T01:22:21;35.63;;;14.60;;
1370;SDS011;14306;49.942;11.570;2022-11-20T01:24:47;29.93;;;15.43;;
1370;SDS011;14306;49.942;11.570;2022-11-20T01:27:12;34.07;;;14.97;;
1370;SDS011;14306;49.942;11.570;2022-11-20T01:29:37;28.47;;;14.37;;
1370;SDS011;14306;49.942;11.570;2022-11-20T01:32:03;29.97;;;14.30;;
1370;SDS011;14306;49.942;11.570;2022-11-20T01:34:28;30.70;;;13.73;;
1370;SDS011;14306;49.942;11.570;2022-11-20T01:36:54;30.23;;;13.70;;
1370;SDS011;14306;49.942;11.570;2022-11-20T01:39:23;31.40;;;14.70;;
1370;SDS011;14306;49.942;11.570;2022-11-20T01:41:51;34.42;;;15.35;;
1370;SDS011;14306;49.942;11.570;2022-11-20T01:47:51;29.65;;;13.75;;
1370;SDS011;14306;49.942;11.570;2022-11-20T01:50:17;31.70;;;15.50;;
1370;SDS011;14306;49.942;11.570;2022-11-20T01:52:50;28.63;;;14.73;;
1370;SDS011;14306;49.942;11.570;2022-11-20T01:55:23;31.53;;;16.67;;
1370;SDS011;14306;49.942;11.570;2022-11-20T01:57:54;29.20;;;13.20;;
1370;SDS011;14306;49.942;11.570;2022-11-20T02:00:20;32.00;;;14.70;;
1370;SDS011;14306;49.942;11.570;2022-11-20T02:02:48;23.73;;;12.37;;
1370;SDS011;14306;49.942;11.570;2022-11-20T02:05:30;26.80;;;14.10;;
1370;SDS011;14306;49.942;11.570;2022-11-20T02:08:00;28.40;;;14.03;;
1370;SDS011;14306;49.942;11.570;2022-11-20T02:10:28;28.50;;;12.90;;
1370;SDS011;14306;49.942;11.570;2022-11-20T02:12:54;27.73;;;14.60;;
1370;SDS011;14306;49.942;11.570;2022-11-20T02:15:39;22.13;;;12.60;;
1370;SDS011;14306;49.942;11.570;2022-11-20T02:18:05;27.35;;;13.35;;
1370;SDS011;14306;49.942;11.570;2022-11-20T02:20:31;27.15;;;12.88;;
1370;SDS011;14306;49.942;11.570;2022-11-20T02:22:59;27.15;;;14.23;;
1370;SDS011;14306;49.942;11.570;2022-11-20T02:25:29;25.77;;;13.57;;
1370;SDS011;14306;49.942;11.570;2022-11-20T02:27:57;24.17;;;12.52;;
1370;SDS011;14306;49.942;11.570;2022-11-20T02:30:24;24.80;;;12.93;;
1370;SDS011;14306;49.942;11.570;2022-11-20T02:32:49;27.77;;;13.33;;
1370;SDS011;14306;49.942;11.570;2022-11-20T02:37:43;26.17;;;12.87;;
1370;SDS011;14306;49.942;11.570;2022-11-20T02:40:09;31.67;;;13.83;;
1370;SDS011;14306;49.942;11.570;2022-11-20T02:42:36;26.73;;;13.13;;
1370;SDS011;14306;49.942;11.570;2022-11-20T02:45:02;27.02;;;12.38;;
1370;SDS011;14306;49.942;11.570;2022-11-20T02:47:28;22.85;;;11.57;;
1370;SDS011;14306;49.942;11.570;2022-11-20T02:49:54;23.43;;;12.27;;
1370;SDS011;14306;49.942;11.570;2022-11-20T02:52:19;24.87;;;13.20;;
1370;SDS011;14306;49.942;11.570;2022-11-20T02:54:45;25.00;;;12.47;;
1370;SDS011;14306;49.942;11.570;2022-11-20T02:57:10;24.27;;;13.30;;
1370;SDS011;14306;49.942;11.570;2022-11-20T02:59:35;31.70;;;13.47;;
1370;SDS011;14306;49.942;11.570;2022-11-20T03:02:01;22.47;;;12.90;;
1370;SDS011;14306;49.942;11.570;2022-11-20T03:04:26;23.83;;;13.17;;
1370;SDS011;14306;49.942;11.570;2022-11-20T03:06:51;23.47;;;12.00;;
1370;SDS011;14306;49.942;11.570;2022-11-20T03:09:17;30.73;;;13.33;;
1370;SDS011;14306;49.942;11.570;2022-11-20T03:11:42;27.57;;;12.60;;
1370;SDS011;14306;49.942;11.570;2022-11-20T03:14:07;19.70;;;11.33;;
1370;SDS011;14306;49.942;11.570;2022-11-20T03:16:33;49.40;;;21.47;;
1370;SDS011;14306;49.942;11.570;2022-11-20T03:18:59;27.37;;;12.83;;
1370;SDS011;14306;49.942;11.570;2022-11-20T03:21:25;24.40;;;13.20;;
1370;SDS011;14306;49.942;11.570;2022-11-20T03:23:50;27.00;;;14.50;;
1370;SDS011;14306;49.942;11.570;2022-11-20T03:28:45;29.73;;;14.18;;
1370;SDS011;14306;49.942;11.570;2022-11-20T03:31:13;27.77;;;13.02;;
1370;SDS011;14306;49.942;11.570;2022-11-20T03:33:39;27.17;;;13.87;;
1370;SDS011;14306;49.942;11.570;2022-11-20T03:36:07;28.17;;;14.02;;
1370;SDS011;14306;49.942;11.570;2022-11-20T03:38:35;24.45;;;13.45;;
1370;SDS011;14306;49.942;11.570;2022-11-20T03:41:02;23.45;;;12.52;;
1370;SDS011;14306;49.942;11.570;2022-11-20T03:43:29;26.07;;;13.23;;
1370;SDS011;14306;49.942;11.570;2022-11-20T03:45:55;23.03;;;12.90;;
1370;SDS011;14306;49.942;11.570;2022-11-20T03:48:20;22.93;;;12.90;;
1370;SDS011;14306;49.942;11.570;2022-11-20T03:50:45;25.60;;;13.10;;
1370;SDS011;14306;49.942;11.570;2022-11-20T03:53:12;24.38;;;12.93;;
1370;SDS011;14306;49.942;11.570;2022-11-20T03:55:38;24.60;;;12.90;;
1370;SDS011;14306;49.942;11.570;2022-11-20T03:58:04;27.03;;;12.60;;
1370;SDS011;14306;49.942;11.570;2022-11-20T04:00:29;24.87;;;11.40;;
1370;SDS011;14306;49.942;11.570;2022-11-20T04:02:57;23.93;;;12.10;;
1370;SDS011;14306;49.942;11.570;2022-11-20T04:05:23;24.63;;;12.70;;
1370;SDS011;14306;49.942;11.570;2022-11-20T04:07:49;26.93;;;13.67;;
1370;SDS011;14306;49.942;11.570;2022-11-20T04:10:14;25.20;;;13.30;;
1370;SDS011;14306;49.942;11.570;2022-11-20T04:12:40;26.73;;;13.63;;
1370;SDS011;14306;49.942;11.570;2022-11-20T04:15:05;24.50;;;12.50;;
1370;SDS011;14306;49.942;11.570;2022-11-20T04:17:31;28.60;;;12.40;;
1370;SDS011;14306;49.942;11.570;2022-11-20T04:19:56;22.33;;;12.67;;
1370;SDS011;14306;49.942;11.570;2022-11-20T04:22:21;24.80;;;13.97;;
1370;SDS011;14306;49.942;11.570;2022-11-20T04:24:47;31.30;;;13.30;;
1370;SDS011;14306;49.942;11.570;2022-11-20T04:27:12;22.00;;;12.03;;
1370;SDS011;14306;49.942;11.570;2022-11-20T04:29:37;25.03;;;12.53;;
1370;SDS011;14306;49.942;11.570;2022-11-20T04:32:03;25.37;;;14.77;;
1370;SDS011;14306;49.942;11.570;2022-11-20T04:34:28;23.13;;;13.87;;
1370;SDS011;14306;49.942;11.570;2022-11-20T04:36:53;25.73;;;14.20;;
1370;SDS011;14306;49.942;11.570;2022-11-20T04:39:19;28.83;;;15.00;;
1370;SDS011;14306;49.942;11.570;2022-11-20T04:41:44;23.63;;;12.57;;
1370;SDS011;14306;49.942;11.570;2022-11-20T04:44:10;25.03;;;13.60;;
1370;SDS011;14306;49.942;11.570;2022-11-20T04:46:37;31.03;;;13.30;;
1370;SDS011;14306;49.942;11.570;2022-11-20T04:49:04;29.00;;;14.00;;
1370;SDS011;14306;49.942;11.570;2022-11-20T04:51:30;25.60;;;12.77;;
1370;SDS011;14306;49.942;11.570;2022-11-20T04:53:56;26.77;;;13.67;;
1370;SDS011;14306;49.942;11.570;2022-11-20T04:56:21;30.20;;;13.87;;
1370;SDS011;14306;49.942;11.570;2022-11-20T04:58:47;23.67;;;12.63;;
1370;SDS011;14306;49.942;11.570;2022-11-20T05:01:13;31.40;;;15.30;;
1370;SDS011;14306;49.942;11.570;2022-11-20T05:03:40;27.43;;;14.27;;
1370;SDS011;14306;49.942;11.570;2022-11-20T05:06:06;25.83;;;13.23;;
1370;SDS011;14306;49.942;11.570;2022-11-20T05:08:33;28.57;;;12.67;;
1370;SDS011;14306;49.942;11.570;2022-11-20T05:11:00;23.60;;;13.20;;
1370;SDS011;14306;49.942;11.570;2022-11-20T05:13:27;21.00;;;12.63;;
1370;SDS011;14306;49.942;11.570;2022-11-20T05:15:52;25.77;;;14.40;;
1370;SDS011;14306;49.942;11.570;2022-11-20T05:18:18;35.27;;;14.33;;
1370;SDS011;14306;49.942;11.570;2022-11-20T05:20:43;24.83;;;13.57;;
1370;SDS011;14306;49.942;11.570;2022-11-20T05:23:08;25.70;;;13.70;;
1370;SDS011;14306;49.942;11.570;2022-11-20T05:25:34;29.03;;;14.10;;
1370;SDS011;14306;49.942;11.570;2022-11-20T05:27:59;24.70;;;13.93;;
1370;SDS011;14306;49.942;11.570;2022-11-20T05:30:24;28.27;;;13.50;;
1370;SDS011;14306;49.942;11.570;2022-11-20T05:32:49;26.10;;;12.43;;
1370;SDS011;14306;49.942;11.570;2022-11-20T05:35:15;23.53;;;12.90;;
1370;SDS011;14306;49.942;11.570;2022-11-20T05:37:40;24.83;;;14.20;;
1370;SDS011;14306;49.942;11.570;2022-11-20T05:40:06;29.50;;;14.20;;
1370;SDS011;14306;49.942;11.570;2022-11-20T05:42:31;27.90;;;13.67;;
1370;SDS011;14306;49.942;11.570;2022-11-20T05:44:57;26.70;;;14.40;;
1370;SDS011;14306;49.942;11.570;2022-11-20T05:47:23;25.97;;;14.47;;
1370;SDS011;14306;49.942;11.570;2022-11-20T05:49:49;25.40;;;13.40;;
1370;SDS011;14306;49.942;11.570;2022-11-20T05:52:14;27.47;;;14.67;;
1370;SDS011;14306;49.942;11.570;2022-11-20T05:54:39;32.70;;;16.30;;
1370;SDS011;14306;49.942;11.570;2022-11-20T05:57:05;34.67;;;15.47;;
1370;SDS011;14306;49.942;11.570;2022-11-20T05:59:30;33.70;;;16.33;;
1370;SDS011;14306;49.942;11.570;2022-11-20T06:01:55;28.57;;;15.03;;
1370;SDS011;14306;49.942;11.570;2022-11-20T06:04:21;33.10;;;16.37;;
1370;SDS011;14306;49.942;11.570;2022-11-20T06:06:46;36.83;;;15.60;;
1370;SDS011;14306;49.942;11.570;2022-11-20T06:09:11;31.17;;;16.20;;
1370;SDS011;14306;49.942;11.570;2022-11-20T06:11:37;37.47;;;16.97;;
1370;SDS011;14306;49.942;11.570;2022-11-20T06:14:02;34.10;;;15.43;;
1370;SDS011;14306;49.942;11.570;2022-11-20T06:16:27;36.03;;;16.87;;
1370;SDS011;14306;49.942;11.570;2022-11-20T06:18:53;37.30;;;18.37;;
1370;SDS011;14306;49.942;11.570;2022-11-20T06:21:19;34.60;;;17.17;;
1370;SDS011;14306;49.942;11.570;2022-11-20T06:23:46;31.67;;;15.80;;
1370;SDS011;14306;49.942;11.570;2022-11-20T06:26:13;33.97;;;16.97;;
1370;SDS011;14306;49.942;11.570;2022-11-20T06:28:43;34.77;;;17.40;;
1370;SDS011;14306;49.942;11.570;2022-11-20T06:31:10;35.30;;;17.10;;
1370;SDS011;14306;49.942;11.570;2022-11-20T06:33:37;31.03;;;15.20;;
1370;SDS011;14306;49.942;11.570;2022-11-20T06:36:03;32.47;;;16.23;;
1370;SDS011;14306;49.942;11.570;2022-11-20T06:38:28;37.20;;;18.80;;
1370;SDS011;14306;49.942;11.570;2022-11-20T06:40:54;35.30;;;17.27;;
1370;SDS011;14306;49.942;11.570;2022-11-20T06:43:20;37.90;;;19.03;;
1370;SDS011;14306;49.942;11.570;2022-11-20T06:45:46;35.33;;;17.00;;
1370;SDS011;14306;49.942;11.570;2022-11-20T06:48:16;37.43;;;16.90;;
1370;SDS011;14306;49.942;11.570;2022-11-20T06:50:41;34.70;;;16.50;;
1370;SDS011;14306;49.942;11.570;2022-11-20T06:53:06;42.87;;;18.07;;
1370;SDS011;14306;49.942;11.570;2022-11-20T06:55:31;35.70;;;16.80;;
1370;SDS011;14306;49.942;11.570;2022-11-20T06:57:57;38.57;;;18.17;;
1370;SDS011;14306;49.942;11.570;2022-11-20T07:00:23;37.20;;;18.27;;
1370;SDS011;14306;49.942;11.570;2022-11-20T07:02:48;35.17;;;16.50;;
1370;SDS011;14306;49.942;11.570;2022-11-20T07:05:14;31.87;;;16.60;;
1370;SDS011;14306;49.942;11.570;2022-11-20T07:07:40;36.23;;;17.17;;
1370;SDS011;14306;49.942;11.570;2022-11-20T07:10:05;32.47;;;16.73;;
1370;SDS011;14306;49.942;11.570;2022-11-20T07:12:31;38.90;;;17.93;;
1370;SDS011;14306;49.942;11.570;2022-11-20T07:14:56;32.33;;;17.00;;
1370;SDS011;14306;49.942;11.570;2022-11-20T07:17:21;37.47;;;18.67;;
1370;SDS011;14306;49.942;11.570;2022-11-20T07:19:47;34.40;;;17.37;;
1370;SDS011;14306;49.942;11.570;2022-11-20T07:22:12;39.60;;;17.67;;
1370;SDS011;14306;49.942;11.570;2022-11-20T07:24:38;41.30;;;19.17;;
1370;SDS011;14306;49.942;11.570;2022-11-20T07:27:04;36.70;;;17.67;;
1370;SDS011;14306;49.942;11.570;2022-11-20T07:29:29;33.73;;;17.17;;
1370;SDS011;14306;49.942;11.570;2022-11-20T07:31:54;37.43;;;17.97;;
1370;SDS011;14306;49.942;11.570;2022-11-20T07:34:21;35.37;;;16.57;;
1370;SDS011;14306;49.942;11.570;2022-11-20T07:36:46;40.30;;;19.23;;
1370;SDS011;14306;49.942;11.570;2022-11-20T07:39:11;41.97;;;18.53;;
1370;SDS011;14306;49.942;11.570;2022-11-20T07:41:37;34.27;;;17.37;;
1370;SDS011;14306;49.942;11.570;2022-11-20T07:44:02;32.73;;;16.73;;
1370;SDS011;14306;49.942;11.570;2022-11-20T07:46:28;45.10;;;19.40;;
1370;SDS011;14306;49.942;11.570;2022-11-20T07:48:53;34.63;;;16.93;;
1370;SDS011;14306;49.942;11.570;2022-11-20T07:51:18;39.07;;;18.70;;
1370;SDS011;14306;49.942;11.570;2022-11-20T07:53:44;35.93;;;18.20;;
1370;SDS011;14306;49.942;11.570;2022-11-20T07:56:09;38.50;;;16.70;;
1370;SDS011;14306;49.942;11.570;2022-11-20T07:58:34;37.93;;;17.00;;
1370;SDS011;14306;49.942;11.570;2022-11-20T08:01:04;38.10;;;18.90;;
1370;SDS011;14306;49.942;11.570;2022-11-20T08:03:30;36.43;;;17.83;;
1370;SDS011;14306;49.942;11.570;2022-11-20T08:05:58;33.90;;;16.77;;
1370;SDS011;14306;49.942;11.570;2022-11-20T08:08:26;40.33;;;18.63;;
1370;SDS011;14306;49.942;11.570;2022-11-20T08:10:53;37.73;;;18.00;;
1370;SDS011;14306;49.942;11.570;2022-11-20T08:13:38;36.40;;;17.30;;
1370;SDS011;14306;49.942;11.570;2022-11-20T08:16:22;33.17;;;16.43;;
1370;SDS011;14306;49.942;11.570;2022-11-20T08:18:47;36.97;;;19.50;;
1370;SDS011;14306;49.942;11.570;2022-11-20T08:21:13;39.53;;;18.73;;
1370;SDS011;14306;49.942;11.570;2022-11-20T08:23:38;35.50;;;18.00;;
1370;SDS011;14306;49.942;11.570;2022-11-20T08:26:03;30.73;;;17.47;;
1370;SDS011;14306;49.942;11.570;2022-11-20T08:28:29;41.77;;;20.27;;
1370;SDS011;14306;49.942;11.570;2022-11-20T08:30:58;42.90;;;19.83;;
1370;SDS011;14306;49.942;11.570;2022-11-20T08:33:25;37.73;;;18.53;;
1370;SDS011;14306;49.942;11.570;2022-11-20T08:35:50;39.17;;;19.83;;
1370;SDS011;14306;49.942;11.570;2022-11-20T08:38:16;44.57;;;19.57;;
1370;SDS011;14306;49.942;11.570;2022-11-20T08:40:41;35.30;;;16.70;;
1370;SDS011;14306;49.942;11.570;2022-11-20T08:43:26;37.13;;;18.40;;
1370;SDS011;14306;49.942;11.570;2022-11-20T08:45:51;41.80;;;19.10;;
1370;SDS011;14306;49.942;11.570;2022-11-20T08:48:17;36.57;;;18.43;;
1370;SDS011;14306;49.942;11.570;2022-11-20T08:50:42;40.97;;;20.10;;
1370;SDS011;14306;49.942;11.570;2022-11-20T08:53:07;38.43;;;19.30;;
1370;SDS011;14306;49.942;11.570;2022-11-20T08:55:33;38.67;;;17.93;;
1370;SDS011;14306;49.942;11.570;2022-11-20T08:58:03;41.13;;;20.40;;
1370;SDS011;14306;49.942;11.570;2022-11-20T09:00:29;40.47;;;20.00;;
1370;SDS011;14306;49.942;11.570;2022-11-20T09:02:54;42.33;;;17.57;;
1370;SDS011;14306;49.942;11.570;2022-11-20T09:05:19;42.30;;;19.97;;
1370;SDS011;14306;49.942;11.570;2022-11-20T09:07:45;44.07;;;21.17;;
1370;SDS011;14306;49.942;11.570;2022-11-20T09:10:10;35.90;;;18.27;;
1370;SDS011;14306;49.942;11.570;2022-11-20T09:12:36;39.17;;;19.53;;
1370;SDS011;14306;49.942;11.570;2022-11-20T09:15:01;37.47;;;20.50;;
1370;SDS011;14306;49.942;11.570;2022-11-20T09:17:26;38.43;;;19.20;;
1370;SDS011;14306;49.942;11.570;2022-11-20T09:19:51;38.97;;;19.87;;
1370;SDS011;14306;49.942;11.570;2022-11-20T09:22:17;38.07;;;19.67;;
1370;SDS011;14306;49.942;11.570;2022-11-20T09:24:42;40.73;;;19.57;;
1370;SDS011;14306;49.942;11.570;2022-11-20T09:27:07;40.07;;;19.23;;
1370;SDS011;14306;49.942;11.570;2022-11-20T09:29:33;39.00;;;19.17;;
1370;SDS011;14306;49.942;11.570;2022-11-20T09:31:59;41.87;;;18.67;;
1370;SDS011;14306;49.942;11.570;2022-11-20T09:34:24;42.77;;;20.33;;
1370;SDS011;14306;49.942;11.570;2022-11-20T09:36:49;44.87;;;18.53;;
1370;SDS011;14306;49.942;11.570;2022-11-20T09:39:15;50.90;;;21.00;;
1370;SDS011;14306;49.942;11.570;2022-11-20T09:44:38;34.80;;;18.27;;
1370;SDS011;14306;49.942;11.570;2022-11-20T09:55:23;45.83;;;18.17;;
1370;SDS011;14306;49.942;11.570;2022-11-20T09:57:50;45.53;;;20.27;;
1370;SDS011;14306;49.942;11.570;2022-11-20T10:00:17;43.93;;;20.27;;
1370;SDS011;14306;49.942;11.570;2022-11-20T10:02:55;41.30;;;19.97;;
1370;SDS011;14306;49.942;11.570;2022-11-20T10:25:40;37.43;;;17.53;;
1370;SDS011;14306;49.942;11.570;2022-11-20T10:31:08;35.03;;;18.83;;
1370;SDS011;14306;49.942;11.570;2022-11-20T10:33:36;38.37;;;18.67;;
1370;SDS011;14306;49.942;11.570;2022-11-20T10:36:17;39.00;;;17.30;;
1370;SDS011;14306;49.942;11.570;2022-11-20T10:38:47;45.57;;;21.60;;
1370;SDS011;14306;49.942;11.570;2022-11-20T10:41:24;37.23;;;19.00;;
1370;SDS011;14306;49.942;11.570;2022-11-20T10:46:28;38.77;;;18.50;;
1370;SDS011;14306;49.942;11.570;2022-11-20T10:49:02;44.03;;;20.00;;
1370;SDS011;14306;49.942;11.570;2022-11-20T10:51:46;41.97;;;18.93;;
1370;SDS011;14306;49.942;11.570;2022-11-20T10:54:40;36.27;;;18.10;;
1370;SDS011;14306;49.942;11.570;2022-11-20T11:00:07;38.80;;;17.70;;
1370;SDS011;14306;49.942;11.570;2022-11-20T11:02:38;36.90;;;17.23;;
1370;SDS011;14306;49.942;11.570;2022-11-20T11:05:12;34.27;;;17.33;;
1370;SDS011;14306;49.942;11.570;2022-11-20T11:07:50;41.00;;;19.40;;
1370;SDS011;14306;49.942;11.570;2022-11-20T11:13:26;36.57;;;18.03;;
1370;SDS011;14306;49.942;11.570;2022-11-20T11:15:53;38.70;;;20.20;;
1370;SDS011;14306;49.942;11.570;2022-11-20T11:20:55;37.70;;;18.30;;
1370;SDS011;14306;49.942;11.570;2022-11-20T11:26:26;34.50;;;17.13;;
1370;SDS011;14306;49.942;11.570;2022-11-20T11:29:02;36.67;;;18.70;;
1370;SDS011;14306;49.942;11.570;2022-11-20T11:31:32;39.40;;;19.13;;
1370;SDS011;14306;49.942;11.570;2022-11-20T11:34:07;36.70;;;18.00;;
1370;SDS011;14306;49.942;11.570;2022-11-20T11:36:37;41.87;;;20.07;;
1370;SDS011;14306;49.942;11.570;2022-11-20T11:39:03;38.03;;;19.13;;
1370;SDS011;14306;49.942;11.570;2022-11-20T11:41:32;38.13;;;18.57;;
1370;SDS011;14306;49.942;11.570;2022-11-20T11:44:12;33.57;;;18.40;;
1370;SDS011;14306;49.942;11.570;2022-11-20T11:47:00;37.63;;;17.30;;
1370;SDS011;14306;49.942;11.570;2022-11-20T11:49:27;40.43;;;18.30;;
1370;SDS011;14306;49.942;11.570;2022-11-20T11:54:49;35.60;;;18.80;;
1370;SDS011;14306;49.942;11.570;2022-11-20T11:59:54;38.07;;;17.20;;
1370;SDS011;14306;49.942;11.570;2022-11-20T12:02:42;38.20;;;17.80;;
1370;SDS011;14306;49.942;11.570;2022-11-20T12:15:51;39.77;;;20.20;;
1370;SDS011;14306;49.942;11.570;2022-11-20T12:18:20;42.73;;;19.27;;
1370;SDS011;14306;49.942;11.570;2022-11-20T12:26:22;38.90;;;19.30;;
1370;SDS011;14306;49.942;11.570;2022-11-20T12:28:54;40.97;;;18.77;;
1370;SDS011;14306;49.942;11.570;2022-11-20T12:31:31;34.53;;;18.60;;
1370;SDS011;14306;49.942;11.570;2022-11-20T12:36:57;41.80;;;19.83;;
1370;SDS011;14306;49.942;11.570;2022-11-20T12:57:21;31.87;;;15.30;;
1370;SDS011;14306;49.942;11.570;2022-11-20T13:00:02;28.13;;;13.93;;
1370;SDS011;14306;49.942;11.570;2022-11-20T13:02:37;23.10;;;11.53;;
1370;SDS011;14306;49.942;11.570;2022-11-20T13:05:17;26.10;;;13.50;;
1370;SDS011;14306;49.942;11.570;2022-11-20T13:07:48;23.87;;;14.00;;
1370;SDS011;14306;49.942;11.570;2022-11-20T13:10:18;19.60;;;11.80;;
1370;SDS011;14306;49.942;11.570;2022-11-20T13:12:55;20.57;;;10.60;;
1370;SDS011;14306;49.942;11.570;2022-11-20T13:15:31;21.10;;;10.70;;
1370;SDS011;14306;49.942;11.570;2022-11-20T13:18:08;23.20;;;9.83;;
1370;SDS011;14306;49.942;11.570;2022-11-20T13:20:36;17.47;;;10.53;;
1370;SDS011;14306;49.942;11.570;2022-11-20T13:23:08;19.80;;;9.77;;
1370;SDS011;14306;49.942;11.570;2022-11-20T13:25:35;17.60;;;9.60;;
1370;SDS011;14306;49.942;11.570;2022-11-20T13:28:05;16.50;;;10.47;;
1370;SDS011;14306;49.942;11.570;2022-11-20T13:30:53;17.27;;;9.67;;
1370;SDS011;14306;49.942;11.570;2022-11-20T13:33:22;17.13;;;8.50;;
1370;SDS011;14306;49.942;11.570;2022-11-20T13:35:56;13.13;;;7.90;;
1370;SDS011;14306;49.942;11.570;2022-11-20T13:38:25;16.37;;;9.77;;
1370;SDS011;14306;49.942;11.570;2022-11-20T13:40:52;12.00;;;7.57;;
1370;SDS011;14306;49.942;11.570;2022-11-20T13:43:33;19.30;;;10.03;;
1370;SDS011;14306;49.942;11.570;2022-11-20T13:46:03;14.03;;;7.67;;
1370;SDS011;14306;49.942;11.570;2022-11-20T13:48:32;10.47;;;6.07;;
1370;SDS011;14306;49.942;11.570;2022-11-20T13:51:12;11.67;;;7.50;;
1370;SDS011;14306;49.942;11.570;2022-11-20T13:53:58;13.70;;;7.87;;
1370;SDS011;14306;49.942;11.570;2022-11-20T13:56:48;10.30;;;6.93;;
1370;SDS011;14306;49.942;11.570;2022-11-20T14:02:15;11.27;;;7.00;;
1370;SDS011;14306;49.942;11.570;2022-11-20T14:04:44;9.70;;;5.77;;
1370;SDS011;14306;49.942;11.570;2022-11-20T14:07:13;11.90;;;6.70;;
1370;SDS011;14306;49.942;11.570;2022-11-20T14:09:48;11.23;;;6.57;;
1370;SDS011;14306;49.942;11.570;2022-11-20T14:12:20;11.23;;;7.07;;
1370;SDS011;14306;49.942;11.570;2022-11-20T14:14:50;9.87;;;6.60;;
1370;SDS011;14306;49.942;11.570;2022-11-20T14:17:20;10.40;;;7.63;;
1370;SDS011;14306;49.942;11.570;2022-11-20T14:19:48;11.10;;;7.60;;
1370;SDS011;14306;49.942;11.570;2022-11-20T14:22:17;15.90;;;8.70;;
1370;SDS011;14306;49.942;11.570;2022-11-20T14:24:45;11.40;;;7.70;;
1370;SDS011;14306;49.942;11.570;2022-11-20T14:27:16;12.63;;;7.40;;
1370;SDS011;14306;49.942;11.570;2022-11-20T14:29:46;12.97;;;7.30;;
1370;SDS011;14306;49.942;11.570;2022-11-20T14:32:17;11.10;;;7.13;;
1370;SDS011;14306;49.942;11.570;2022-11-20T14:34:46;12.53;;;7.40;;
1370;SDS011;14306;49.942;11.570;2022-11-20T14:37:17;10.73;;;7.60;;
1370;SDS011;14306;49.942;11.570;2022-11-20T14:39:48;13.50;;;8.93;;
1370;SDS011;14306;49.942;11.570;2022-11-20T14:42:18;14.80;;;8.60;;
1370;SDS011;14306;49.942;11.570;2022-11-20T14:44:47;17.73;;;8.97;;
1370;SDS011;14306;49.942;11.570;2022-11-20T14:47:18;13.30;;;8.73;;
1370;SDS011;14306;49.942;11.570;2022-11-20T14:49:48;10.10;;;7.50;;
1370;SDS011;14306;49.942;11.570;2022-11-20T14:52:16;15.43;;;8.73;;
1370;SDS011;14306;49.942;11.570;2022-11-20T14:54:45;13.23;;;8.70;;
1370;SDS011;14306;49.942;11.570;2022-11-20T14:57:23;14.47;;;9.07;;
1370;SDS011;14306;49.942;11.570;2022-11-20T14:59:51;14.63;;;8.80;;
1370;SDS011;14306;49.942;11.570;2022-11-20T15:02:32;20.03;;;9.83;;
1370;SDS011;14306;49.942;11.570;2022-11-20T15:04:59;16.30;;;9.17;;
1370;SDS011;14306;49.942;11.570;2022-11-20T15:07:28;16.20;;;9.30;;
1370;SDS011;14306;49.942;11.570;2022-11-20T15:10:00;11.67;;;8.23;;
1370;SDS011;14306;49.942;11.570;2022-11-20T15:12:27;15.47;;;9.90;;
1370;SDS011;14306;49.942;11.570;2022-11-20T15:14:55;17.63;;;9.90;;
1370;SDS011;14306;49.942;11.570;2022-11-20T15:17:22;16.73;;;9.67;;
1370;SDS011;14306;49.942;11.570;2022-11-20T15:19:50;16.73;;;9.70;;
1370;SDS011;14306;49.942;11.570;2022-11-20T15:22:18;15.57;;;10.00;;
1370;SDS011;14306;49.942;11.570;2022-11-20T15:24:45;16.37;;;9.90;;
1370;SDS011;14306;49.942;11.570;2022-11-20T15:27:11;16.93;;;10.30;;
1370;SDS011;14306;49.942;11.570;2022-11-20T15:29:38;13.47;;;8.13;;
1370;SDS011;14306;49.942;11.570;2022-11-20T15:32:05;14.63;;;9.07;;
1370;SDS011;14306;49.942;11.570;2022-11-20T15:34:31;16.33;;;9.43;;
1370;SDS011;14306;49.942;11.570;2022-11-20T15:36:59;11.50;;;8.00;;
1370;SDS011;14306;49.942;11.570;2022-11-20T15:39:26;16.00;;;9.27;;
1370;SDS011;14306;49.942;11.570;2022-11-20T15:41:52;13.83;;;8.73;;
1370;SDS011;14306;49.942;11.570;2022-11-20T15:44:19;14.50;;;8.87;;
1370;SDS011;14306;49.942;11.570;2022-11-20T15:46:46;18.57;;;11.03;;
1370;SDS011;14306;49.942;11.570;2022-11-20T15:49:13;19.43;;;11.50;;
1370;SDS011;14306;49.942;11.570;2022-11-20T15:51:41;23.00;;;11.90;;
1370;SDS011;14306;49.942;11.570;2022-11-20T15:54:11;24.50;;;13.10;;
1370;SDS011;14306;49.942;11.570;2022-11-20T15:56:39;25.90;;;13.07;;
1370;SDS011;14306;49.942;11.570;2022-11-20T15:59:06;26.13;;;14.00;;
1370;SDS011;14306;49.942;11.570;2022-11-20T16:01:32;21.63;;;12.20;;
1370;SDS011;14306;49.942;11.570;2022-11-20T16:03:59;25.97;;;13.27;;
1370;SDS011;14306;49.942;11.570;2022-11-20T16:06:26;24.73;;;12.10;;
1370;SDS011;14306;49.942;11.570;2022-11-20T16:08:52;30.80;;;13.10;;
1370;SDS011;14306;49.942;11.570;2022-11-20T16:11:20;29.97;;;14.17;;